createdAt,value
2018-09-27T00:01:35.116Z,7.42
2018-09-27T00:04:03.196Z,7.39
2018-09-27T00:06:31.292Z,7.35
2018-09-27T00:08:59.415Z,7.30
2018-09-27T00:11:27.512Z,7.19
2018-09-27T00:13:55.617Z,7.15
2018-09-27T00:16:23.703Z,7.22
2018-09-27T00:18:51.791Z,7.05
2018-09-27T00:21:19.866Z,7.11
2018-09-27T00:23:47.940Z,7.21
2018-09-27T00:26:16.012Z,7.08
2018-09-27T00:28:44.087Z,7.03
2018-09-27T00:31:12.163Z,7.15
2018-09-27T00:33:40.239Z,7.14
2018-09-27T00:36:08.328Z,7.17
2018-09-27T00:38:36.473Z,7.17
2018-09-27T00:41:04.629Z,7.17
2018-09-27T00:43:32.731Z,7.18
2018-09-27T00:46:00.815Z,6.97
2018-09-27T00:48:28.904Z,7.07
2018-09-27T00:50:57.012Z,7.07
2018-09-27T00:53:25.091Z,7.06
2018-09-27T00:55:53.178Z,7.04
2018-09-27T00:58:21.252Z,6.96
2018-09-27T01:00:49.690Z,7.04
2018-09-27T01:03:17.794Z,7.00
2018-09-27T01:05:45.863Z,6.93
2018-09-27T01:08:13.926Z,6.94
2018-09-27T01:10:42.168Z,6.99
2018-09-27T01:13:10.243Z,6.89
2018-09-27T01:15:38.358Z,6.86
2018-09-27T01:18:06.717Z,6.81
2018-09-27T01:20:34.812Z,6.78
2018-09-27T01:23:02.879Z,6.63
2018-09-27T01:25:30.961Z,6.66
2018-09-27T01:27:59.091Z,6.86
2018-09-27T01:30:27.200Z,6.82
2018-09-27T01:32:55.268Z,6.71
2018-09-27T01:35:23.349Z,6.77
2018-09-27T01:37:51.412Z,6.76
2018-09-27T01:40:19.480Z,6.63
2018-09-27T01:42:47.556Z,6.58
2018-09-27T01:45:15.626Z,6.64
2018-09-27T01:47:43.713Z,6.51
2018-09-27T01:50:11.785Z,6.52
2018-09-27T01:52:40.032Z,6.55
2018-09-27T01:55:08.131Z,6.63
2018-09-27T01:57:36.207Z,6.59
2018-09-27T02:00:04.306Z,6.56
2018-09-27T02:02:32.416Z,6.57
2018-09-27T02:05:00.500Z,6.49
2018-09-27T02:07:28.571Z,6.51
2018-09-27T02:09:56.647Z,6.46
2018-09-27T02:12:24.731Z,6.48
2018-09-27T02:14:52.808Z,6.51
2018-09-27T02:17:20.874Z,6.40
2018-09-27T02:19:48.971Z,6.19
2018-09-27T02:22:17.116Z,6.28
2018-09-27T02:24:45.196Z,6.28
2018-09-27T02:27:13.272Z,6.23
2018-09-27T02:29:41.707Z,6.09
2018-09-27T02:32:09.816Z,6.07
2018-09-27T02:34:37.941Z,6.15
2018-09-27T02:37:06.025Z,6.32
2018-09-27T02:39:34.090Z,6.31
2018-09-27T02:42:02.180Z,6.17
2018-09-27T02:44:30.265Z,6.20
2018-09-27T02:46:58.404Z,6.19
2018-09-27T02:49:26.483Z,6.15
2018-09-27T02:51:54.655Z,6.08
2018-09-27T02:54:22.775Z,6.03
2018-09-27T02:56:50.838Z,6.01
2018-09-27T02:59:18.931Z,5.94
2018-09-27T03:01:47.003Z,5.82
2018-09-27T03:04:15.079Z,5.87
2018-09-27T03:06:43.155Z,5.92
2018-09-27T03:09:12.318Z,5.92
2018-09-27T03:11:40.473Z,5.80
2018-09-27T03:14:08.567Z,5.86
2018-09-27T03:16:36.635Z,5.96
2018-09-27T03:19:04.708Z,5.93
2018-09-27T03:21:32.803Z,5.92
2018-09-27T03:24:00.890Z,5.75
2018-09-27T03:26:28.955Z,5.59
2018-09-27T03:28:57.046Z,5.77
2018-09-27T03:31:25.209Z,5.81
2018-09-27T03:33:53.292Z,5.79
2018-09-27T03:36:21.445Z,5.72
2018-09-27T03:38:49.512Z,5.80
2018-09-27T03:41:17.623Z,5.91
2018-09-27T03:43:45.700Z,5.90
2018-09-27T03:46:13.801Z,5.97
2018-09-27T03:48:41.944Z,5.75
2018-09-27T03:51:10.021Z,5.72
2018-09-27T03:53:38.092Z,5.74
2018-09-27T03:56:06.235Z,5.65
2018-09-27T03:58:34.305Z,5.64
2018-09-27T04:01:02.390Z,5.66
2018-09-27T04:03:30.520Z,5.60
2018-09-27T04:05:58.625Z,5.60
2018-09-27T04:08:26.736Z,5.61
2018-09-27T04:10:54.871Z,5.62
2018-09-27T04:13:23.007Z,5.66
2018-09-27T04:15:51.154Z,5.49
2018-09-27T04:18:19.178Z,5.53
2018-09-27T04:20:50.525Z,5.48
2018-09-27T04:23:19.532Z,5.48
2018-09-27T04:25:47.668Z,5.50
2018-09-27T04:28:15.879Z,5.51
2018-09-27T04:30:44.006Z,5.59
2018-09-27T04:33:12.087Z,5.38
2018-09-27T04:35:40.168Z,5.48
2018-09-27T04:38:08.259Z,5.40
2018-09-27T04:40:36.413Z,5.37
2018-09-27T04:43:04.782Z,5.41
2018-09-27T04:45:32.887Z,5.28
2018-09-27T04:48:00.979Z,5.20
2018-09-27T04:50:29.044Z,5.11
2018-09-27T04:52:57.116Z,5.23
2018-09-27T04:55:25.184Z,5.27
2018-09-27T04:57:53.271Z,5.31
2018-09-27T05:00:21.323Z,5.42
2018-09-27T05:02:49.404Z,5.19
2018-09-27T05:05:17.468Z,5.13
2018-09-27T05:07:45.530Z,5.20
2018-09-27T05:10:13.604Z,5.13
2018-09-27T05:12:41.703Z,5.11
2018-09-27T05:15:09.773Z,5.06
2018-09-27T05:17:37.847Z,4.98
2018-09-27T05:20:05.920Z,4.97
2018-09-27T05:22:33.989Z,4.94
2018-09-27T05:25:02.127Z,5.03
2018-09-27T05:27:30.207Z,5.09
2018-09-27T05:29:58.304Z,5.12
2018-09-27T05:32:26.391Z,5.14
2018-09-27T05:34:54.470Z,4.98
2018-09-27T05:37:22.547Z,5.08
2018-09-27T05:39:50.643Z,5.18
2018-09-27T05:42:18.699Z,5.16
2018-09-27T05:44:46.782Z,5.12
2018-09-27T05:47:14.873Z,5.12
2018-09-27T05:49:42.962Z,5.24
2018-09-27T05:52:11.184Z,5.31
2018-09-27T05:54:39.404Z,5.33
2018-09-27T05:57:07.508Z,5.30
2018-09-27T05:59:35.590Z,5.32
2018-09-27T06:02:03.689Z,5.47
2018-09-27T06:04:31.794Z,5.51
2018-09-27T06:06:59.878Z,5.67
2018-09-27T06:09:28.020Z,5.88
2018-09-27T06:11:56.044Z,5.93
2018-09-27T06:14:24.127Z,5.98
2018-09-27T06:16:52.232Z,6.06
2018-09-27T06:19:20.336Z,6.14
2018-09-27T06:21:48.370Z,6.16
2018-09-27T06:24:16.447Z,6.24
2018-09-27T06:26:44.527Z,6.31
2018-09-27T06:29:12.591Z,6.32
2018-09-27T06:31:40.669Z,6.31
2018-09-27T06:34:08.738Z,6.38
2018-09-27T06:36:36.827Z,6.37
2018-09-27T06:39:07.028Z,6.49
2018-09-27T06:41:35.089Z,6.55
2018-09-27T06:44:03.175Z,6.62
2018-09-27T06:46:31.235Z,6.70
2018-09-27T06:48:59.307Z,6.82
2018-09-27T06:51:27.417Z,6.90
2018-09-27T06:53:55.522Z,6.97
2018-09-27T06:56:23.646Z,7.09
2018-09-27T06:58:51.712Z,7.20
2018-09-27T07:01:19.806Z,7.35
2018-09-27T07:03:47.879Z,7.52
2018-09-27T07:06:15.972Z,7.64
2018-09-27T07:08:44.329Z,7.75
2018-09-27T07:11:12.336Z,7.86
2018-09-27T07:13:40.402Z,7.98
2018-09-27T07:16:08.475Z,8.12
2018-09-27T07:18:36.674Z,8.22
2018-09-27T07:21:04.719Z,8.32
2018-09-27T07:23:32.807Z,8.53
2018-09-27T07:26:00.879Z,8.58
2018-09-27T07:28:28.941Z,8.68
2018-09-27T07:30:57.049Z,8.83
2018-09-27T07:33:25.079Z,8.84
2018-09-27T07:35:53.150Z,8.90
2018-09-27T07:38:21.253Z,8.99
2018-09-27T07:40:49.359Z,9.07
2018-09-27T07:43:17.440Z,9.19
2018-09-27T07:45:45.532Z,9.25
2018-09-27T07:48:13.604Z,9.41
2018-09-27T07:50:41.790Z,9.55
2018-09-27T07:53:09.787Z,9.59
2018-09-27T07:55:37.879Z,9.62
2018-09-27T07:58:06.060Z,9.67
2018-09-27T08:00:34.227Z,9.74
2018-09-27T08:03:02.415Z,9.87
2018-09-27T08:05:30.529Z,9.94
2018-09-27T08:07:58.725Z,10.02
2018-09-27T08:10:26.794Z,10.21
2018-09-27T08:12:54.948Z,10.27
2018-09-27T08:15:23.190Z,10.41
2018-09-27T08:17:51.299Z,10.43
2018-09-27T08:20:19.445Z,10.51
2018-09-27T08:22:47.504Z,10.59
2018-09-27T08:25:15.591Z,10.68
2018-09-27T08:27:43.680Z,10.83
2018-09-27T08:30:11.808Z,10.93
2018-09-27T08:32:39.966Z,10.99
2018-09-27T08:35:07.960Z,11.10
2018-09-27T08:37:36.027Z,11.35
2018-09-27T08:40:04.148Z,11.44
2018-09-27T08:42:32.249Z,11.58
2018-09-27T08:45:00.443Z,11.62
2018-09-27T08:47:28.428Z,11.71
2018-09-27T08:49:56.526Z,11.75
2018-09-27T08:52:24.602Z,11.90
2018-09-27T08:54:52.710Z,12.08
2018-09-27T08:57:20.830Z,12.19
2018-09-27T08:59:48.933Z,12.31
2018-09-27T09:02:17.311Z,12.31
2018-09-27T09:04:45.483Z,12.38
2018-09-27T09:07:13.628Z,12.50
2018-09-27T09:09:41.718Z,12.61
2018-09-27T09:12:09.881Z,12.87
2018-09-27T09:14:37.936Z,12.97
2018-09-27T09:17:06.746Z,12.92
2018-09-27T09:19:35.299Z,13.00
2018-09-27T09:22:03.372Z,13.10
2018-09-27T09:24:31.538Z,13.24
2018-09-27T09:26:59.679Z,13.30
2018-09-27T09:29:27.942Z,13.44
2018-09-27T09:31:56.080Z,13.58
2018-09-27T09:34:24.287Z,13.73
2018-09-27T09:36:52.435Z,13.92
2018-09-27T09:39:20.579Z,13.99
2018-09-27T09:41:48.748Z,14.12
2018-09-27T09:44:16.908Z,14.34
2018-09-27T09:46:45.073Z,14.36
2018-09-27T09:49:13.268Z,14.47
2018-09-27T09:51:41.452Z,14.60
2018-09-27T09:54:09.796Z,14.80
2018-09-27T09:56:37.960Z,14.88
2018-09-27T09:59:06.160Z,15.13
2018-09-27T10:01:34.305Z,15.16
2018-09-27T10:04:02.452Z,15.20
2018-09-27T10:06:30.644Z,15.37
2018-09-27T10:08:58.839Z,15.39
2018-09-27T10:11:26.995Z,15.46
2018-09-27T10:13:55.176Z,15.46
2018-09-27T10:16:23.343Z,15.59
2018-09-27T10:18:51.507Z,15.77
2018-09-27T10:21:19.727Z,15.87
2018-09-27T10:23:48.632Z,15.94
2018-09-27T10:26:16.813Z,15.95
2018-09-27T10:28:45.016Z,15.96
2018-09-27T10:31:13.187Z,16.07
2018-09-27T10:33:41.339Z,16.30
2018-09-27T10:36:09.597Z,16.40
2018-09-27T10:38:37.867Z,16.38
2018-09-27T10:41:06.086Z,16.48
2018-09-27T10:43:34.276Z,16.57
2018-09-27T10:46:02.480Z,16.59
2018-09-27T10:48:30.661Z,16.73
2018-09-27T10:50:58.826Z,16.79
2018-09-27T10:53:27.044Z,17.00
2018-09-27T10:55:55.912Z,17.01
2018-09-27T10:58:24.116Z,16.98
2018-09-27T11:00:52.292Z,17.19
2018-09-27T11:03:20.528Z,17.41
2018-09-27T11:05:48.774Z,17.50
2018-09-27T11:08:16.973Z,17.45
2018-09-27T11:10:45.167Z,17.60
2018-09-27T11:13:13.415Z,17.76
2018-09-27T11:15:41.631Z,17.87
2018-09-27T11:18:09.863Z,17.80
2018-09-27T11:20:38.085Z,17.96
2018-09-27T11:23:06.266Z,18.05
2018-09-27T11:25:34.493Z,18.25
2018-09-27T11:28:02.648Z,18.41
2018-09-27T11:30:32.275Z,18.55
2018-09-27T11:33:00.450Z,18.73
2018-09-27T11:35:28.582Z,18.74
2018-09-27T11:37:56.689Z,18.70
2018-09-27T11:40:24.801Z,18.82
2018-09-27T11:42:52.954Z,18.82
2018-09-27T11:45:21.120Z,18.93
2018-09-27T11:47:49.310Z,18.93
2018-09-27T11:50:17.547Z,18.89
2018-09-27T11:52:45.680Z,18.80
2018-09-27T11:55:13.911Z,18.73
2018-09-27T11:57:42.105Z,18.76
2018-09-27T12:00:10.335Z,18.79
2018-09-27T12:02:38.732Z,18.84
2018-09-27T12:05:06.904Z,18.88
2018-09-27T12:07:35.057Z,19.06
2018-09-27T12:10:03.224Z,19.11
2018-09-27T12:12:31.379Z,19.22
2018-09-27T12:14:59.569Z,19.29
2018-09-27T12:17:27.688Z,19.36
2018-09-27T12:19:55.764Z,19.45
2018-09-27T12:22:23.843Z,19.43
2018-09-27T12:24:51.976Z,19.53
2018-09-27T12:27:20.080Z,19.93
2018-09-27T12:29:48.172Z,19.92
2018-09-27T12:32:16.240Z,19.88
2018-09-27T12:34:44.348Z,20.09
2018-09-27T12:37:12.422Z,20.12
2018-09-27T12:39:40.533Z,20.09
2018-09-27T12:42:08.725Z,20.12
2018-09-27T12:44:36.663Z,20.16
2018-09-27T12:47:04.760Z,20.21
2018-09-27T12:49:32.847Z,20.42
2018-09-27T12:52:01.129Z,20.44
2018-09-27T12:54:28.999Z,20.46
2018-09-27T12:56:57.119Z,20.40
2018-09-27T12:59:25.285Z,20.35
2018-09-27T13:01:53.468Z,20.38
2018-09-27T13:04:21.500Z,20.35
2018-09-27T13:06:49.614Z,20.33
2018-09-27T13:09:17.856Z,20.33
2018-09-27T13:11:45.849Z,20.61
2018-09-27T13:14:14.070Z,20.54
2018-09-27T13:16:42.244Z,20.56
2018-09-27T13:19:10.492Z,20.82
2018-09-27T13:21:38.672Z,20.76
2018-09-27T13:24:06.813Z,20.74
2018-09-27T13:26:35.078Z,20.86
2018-09-27T13:29:03.213Z,21.12
2018-09-27T13:31:31.514Z,21.05
2018-09-27T13:33:59.719Z,21.00
2018-09-27T13:36:27.856Z,20.90
2018-09-27T13:38:56.093Z,20.90
2018-09-27T13:41:24.239Z,21.21
2018-09-27T13:43:52.424Z,21.13
2018-09-27T13:46:20.575Z,21.05
2018-09-27T13:48:48.814Z,21.03
2018-09-27T13:51:16.853Z,21.08
2018-09-27T13:53:45.025Z,21.06
2018-09-27T13:56:13.188Z,21.10
2018-09-27T13:58:41.364Z,21.08
2018-09-27T14:01:09.598Z,21.13
2018-09-27T14:03:37.604Z,21.31
2018-09-27T14:06:05.699Z,21.35
2018-09-27T14:08:33.804Z,21.56
2018-09-27T14:11:01.899Z,21.47
2018-09-27T14:13:30.056Z,21.59
2018-09-27T14:15:58.180Z,21.71
2018-09-27T14:18:26.273Z,21.81
2018-09-27T14:23:28.872Z,21.61
2018-09-27T14:25:56.952Z,21.61
2018-09-27T14:28:25.136Z,21.56
2018-09-27T14:30:53.368Z,21.50
2018-09-27T14:33:21.568Z,21.50
2018-09-27T14:35:49.764Z,21.48
2018-09-27T14:38:17.982Z,21.50
2018-09-27T14:40:46.177Z,21.44
2018-09-27T14:43:14.365Z,21.47
2018-09-27T14:45:42.579Z,21.50
2018-09-27T14:48:10.965Z,21.65
2018-09-27T14:50:39.200Z,21.71
2018-09-27T14:53:07.350Z,21.77
2018-09-27T14:55:36.256Z,21.91
2018-09-27T14:58:04.476Z,21.82
2018-09-27T15:00:32.698Z,21.80
2018-09-27T15:03:00.864Z,21.79
2018-09-27T15:05:29.071Z,21.80
2018-09-27T15:07:57.270Z,21.87
2018-09-27T15:10:25.600Z,21.74
2018-09-27T15:12:53.830Z,21.63
2018-09-27T15:15:22.004Z,21.68
2018-09-27T15:17:50.245Z,21.68
2018-09-27T15:20:18.391Z,21.60
2018-09-27T15:22:46.665Z,21.53
2018-09-27T15:25:14.871Z,21.44
2018-09-27T15:27:42.981Z,21.32
2018-09-27T15:30:11.047Z,21.40
2018-09-27T15:32:39.136Z,21.31
2018-09-27T15:35:07.247Z,21.19
2018-09-27T15:37:35.389Z,21.08
2018-09-27T15:40:03.967Z,20.96
2018-09-27T15:42:32.056Z,20.97
2018-09-27T15:45:00.288Z,20.87
2018-09-27T15:47:28.465Z,20.88
2018-09-27T15:49:56.664Z,20.80
2018-09-27T15:52:24.918Z,20.76
2018-09-27T15:54:53.752Z,20.75
2018-09-27T15:57:21.972Z,20.70
2018-09-27T15:59:50.160Z,20.57
2018-09-27T16:02:18.333Z,20.53
2018-09-27T16:04:46.601Z,20.48
2018-09-27T16:07:14.860Z,20.36
2018-09-27T16:09:43.153Z,20.34
2018-09-27T16:12:11.413Z,20.24
2018-09-27T16:14:39.857Z,20.20
2018-09-27T16:17:07.896Z,20.10
2018-09-27T16:19:35.963Z,20.00
2018-09-27T16:22:04.127Z,20.02
2018-09-27T16:24:32.213Z,19.97
2018-09-27T16:27:00.309Z,19.90
2018-09-27T16:29:28.444Z,19.83
2018-09-27T16:31:56.476Z,19.66
2018-09-27T16:34:24.598Z,19.56
2018-09-27T16:36:52.744Z,19.40
2018-09-27T16:39:20.828Z,19.31
2018-09-27T16:41:48.913Z,19.17
2018-09-27T16:44:16.979Z,19.06
2018-09-27T16:46:45.112Z,18.95
2018-09-27T16:49:13.183Z,18.83
2018-09-27T16:51:41.289Z,18.72
2018-09-27T16:54:09.420Z,18.69
2018-09-27T16:56:37.673Z,18.49
2018-09-27T16:59:05.760Z,18.38
2018-09-27T17:01:33.895Z,18.24
2018-09-27T17:04:02.004Z,18.06
2018-09-27T17:06:30.284Z,17.92
2018-09-27T17:08:58.501Z,17.87
2018-09-27T17:11:27.086Z,17.75
2018-09-27T17:13:55.249Z,17.67
2018-09-27T17:16:30.912Z,17.60
2018-09-27T17:22:18.223Z,17.22
2018-09-27T17:24:47.688Z,17.13
2018-09-27T17:27:21.425Z,16.99
2018-09-27T17:29:52.396Z,16.84
2018-09-27T17:32:21.065Z,16.73
2018-09-27T17:34:52.481Z,16.61
2018-09-27T17:37:21.723Z,16.48
2018-09-27T17:39:52.901Z,16.29
2018-09-27T17:42:27.820Z,16.24
2018-09-27T17:44:56.183Z,16.24
2018-09-27T17:47:30.948Z,16.16
2018-09-27T17:50:00.810Z,15.97
2018-09-27T17:55:03.075Z,15.68
2018-09-27T17:57:34.125Z,15.50
2018-09-27T18:00:04.749Z,15.50
2018-09-27T18:02:36.069Z,15.46
2018-09-27T18:05:18.812Z,15.38
2018-09-27T18:07:35.116Z,15.37
2018-09-27T18:10:04.392Z,15.29
2018-09-27T18:12:33.796Z,15.21
2018-09-27T18:15:06.388Z,15.19
2018-09-27T18:17:38.934Z,15.15
2018-09-27T18:20:08.598Z,15.03
2018-09-27T18:22:39.013Z,14.97
2018-09-27T18:25:21.175Z,14.91
2018-09-27T18:27:51.798Z,14.83
2018-09-27T18:30:22.653Z,14.79
2018-09-27T18:32:51.044Z,14.66
2018-09-27T18:35:21.029Z,14.67
2018-09-27T18:37:51.003Z,14.51
2018-09-27T18:40:20.670Z,14.31
2018-09-27T18:42:49.892Z,14.16
2018-09-27T18:45:20.266Z,13.98
2018-09-27T18:47:49.573Z,14.00
2018-09-27T18:50:20.812Z,14.03
2018-09-27T18:52:51.807Z,13.99
2018-09-27T18:55:23.123Z,13.82
2018-09-27T18:57:51.539Z,13.71
2018-09-27T19:00:20.475Z,13.63
2018-09-27T19:03:27.108Z,13.20
2018-09-27T19:05:56.182Z,13.33
2018-09-27T19:08:24.779Z,13.35
2018-09-27T19:10:55.462Z,13.40
2018-09-27T19:13:26.654Z,13.34
2018-09-27T19:16:05.956Z,13.35
2018-09-27T19:18:39.327Z,13.24
2018-09-27T19:21:08.439Z,13.20
2018-09-27T19:23:40.088Z,13.06
2018-09-27T19:26:16.714Z,12.98
2018-09-27T19:28:56.034Z,12.99
2018-09-27T19:31:24.427Z,12.95
2018-09-27T19:33:53.017Z,12.88
2018-09-27T19:36:22.061Z,12.78
2018-09-27T19:38:50.612Z,12.74
2018-09-27T19:41:25.631Z,12.63
2018-09-27T19:44:02.716Z,12.49
2018-09-27T19:46:34.023Z,12.40
2018-09-27T19:49:06.514Z,12.43
2018-09-27T19:51:35.916Z,12.41
2018-09-27T19:54:10.044Z,12.46
2018-09-27T19:56:40.643Z,12.47
2018-09-27T19:59:11.492Z,12.41
2018-09-27T20:04:19.897Z,12.18
2018-09-27T20:06:52.178Z,12.04
2018-09-27T20:14:44.680Z,12.01
2018-09-27T20:17:15.076Z,11.91
2018-09-27T20:19:48.788Z,11.87
2018-09-27T20:22:22.602Z,11.84
2018-09-27T20:24:53.199Z,11.79
2018-09-27T20:27:27.398Z,11.74
2018-09-27T20:29:58.290Z,11.68
2018-09-27T20:32:29.300Z,11.70
2018-09-27T20:34:58.167Z,11.72
2018-09-27T20:37:29.284Z,11.66
2018-09-27T20:39:57.585Z,11.69
2018-09-27T20:42:36.135Z,11.59
2018-09-27T20:45:05.424Z,11.55
2018-09-27T20:47:35.497Z,11.52
2018-09-27T20:50:05.099Z,11.41
2018-09-27T20:52:35.257Z,11.47
2018-09-27T20:55:04.797Z,11.39
2018-09-27T20:57:35.685Z,11.35
2018-09-27T21:00:04.216Z,11.32
2018-09-27T21:02:33.701Z,11.31
2018-09-27T21:05:04.477Z,11.29
2018-09-27T21:07:33.761Z,11.26
2018-09-27T21:10:04.327Z,11.18
2018-09-27T21:12:33.904Z,11.06
2018-09-27T21:15:05.920Z,11.06
2018-09-27T21:17:34.819Z,11.07
2018-09-27T21:20:03.470Z,10.88
2018-09-27T21:22:32.290Z,10.89
2018-09-27T21:25:00.633Z,10.79
2018-09-27T21:27:30.553Z,10.69
2018-09-27T21:29:58.904Z,10.75
2018-09-27T21:32:27.330Z,10.77
2018-09-27T21:34:57.571Z,10.77
2018-09-27T21:37:25.927Z,10.85
2018-09-27T21:39:54.795Z,10.66
2018-09-27T21:42:23.623Z,10.54
2018-09-27T21:44:52.142Z,10.58
2018-09-27T21:47:20.385Z,10.52
2018-09-27T21:49:50.193Z,10.42
2018-09-27T21:52:19.148Z,10.43
2018-09-27T21:54:47.547Z,10.31
2018-09-27T21:57:16.972Z,10.45
2018-09-27T21:59:45.317Z,10.38
2018-09-27T22:02:16.126Z,10.34
2018-09-27T22:04:46.264Z,10.29
2018-09-27T22:07:15.978Z,10.32
2018-09-27T22:09:45.825Z,10.38
2018-09-27T22:12:14.126Z,10.33
2018-09-27T22:14:42.716Z,10.21
2018-09-27T22:17:13.475Z,10.17
2018-09-27T22:19:45.893Z,10.24
2018-09-27T22:22:16.204Z,9.98
2018-09-27T22:24:46.828Z,9.94
2018-09-27T22:27:16.485Z,9.98
2018-09-27T22:29:47.022Z,9.99
2018-09-27T22:32:17.146Z,10.06
2018-09-27T22:34:46.893Z,10.07
2018-09-27T22:37:16.689Z,9.97
2018-09-27T22:39:45.122Z,9.89
2018-09-27T22:42:16.943Z,9.92
2018-09-27T22:44:46.771Z,9.87
2018-09-27T22:47:15.517Z,9.86
2018-09-27T22:49:43.762Z,9.66
2018-09-27T22:52:12.697Z,9.72
2018-09-27T22:54:41.771Z,9.73
2018-09-27T22:57:10.111Z,9.72
2018-09-27T22:59:38.919Z,9.75
2018-09-27T23:02:07.223Z,9.75
2018-09-27T23:04:36.656Z,9.62
2018-09-27T23:07:04.868Z,9.64
2018-09-27T23:09:33.169Z,9.64
2018-09-27T23:12:01.333Z,9.67
2018-09-27T23:14:29.488Z,9.65
2018-09-27T23:16:57.736Z,9.66
2018-09-27T23:19:25.921Z,9.66
2018-09-27T23:21:54.140Z,9.53
2018-09-27T23:24:22.175Z,9.38
2018-09-27T23:26:50.252Z,9.37
2018-09-27T23:29:18.320Z,9.29
2018-09-27T23:31:46.384Z,9.30
2018-09-27T23:34:14.503Z,9.19
2018-09-27T23:36:42.602Z,9.21
2018-09-27T23:39:11.168Z,9.27
2018-09-27T23:41:39.639Z,9.22
2018-09-27T23:44:07.930Z,9.13
2018-09-27T23:46:36.035Z,9.15
2018-09-27T23:49:04.117Z,9.05
2018-09-27T23:51:32.191Z,9.13
2018-09-27T23:54:00.280Z,9.16
2018-09-27T23:56:28.361Z,9.21
2018-09-27T23:58:56.436Z,9.20
